sensor_id;sensor_type;location;lat;lon;timestamp;pressure;altitude;pressure_sealevel;temperature;humidity
48563;BME280;34981;49.104;11.396;2023-09-08T00:00:29;95383.81;;;16.87;100.00
48563;BME280;34981;49.104;11.396;2023-09-08T00:02:57;95380.63;;;16.68;100.00
48563;BME280;34981;49.104;11.396;2023-09-08T00:05:24;95387.97;;;16.76;100.00
48563;BME280;34981;49.104;11.396;2023-09-08T00:07:51;95384.75;;;16.83;100.00
48563;BME280;34981;49.104;11.396;2023-09-08T00:10:18;95384.59;;;16.88;100.00
48563;BME280;34981;49.104;11.396;2023-09-08T00:12:45;95392.41;;;16.81;100.00
48563;BME280;34981;49.104;11.396;2023-09-08T00:15:12;95382.53;;;16.76;100.00
48563;BME280;34981;49.104;11.396;2023-09-08T00:17:39;95384.47;;;16.76;100.00
48563;BME280;34981;49.104;11.396;2023-09-08T00:20:06;95380.16;;;16.74;100.00
48563;BME280;34981;49.104;11.396;2023-09-08T00:22:37;95375.38;;;16.80;100.00
48563;BME280;34981;49.104;11.396;2023-09-08T00:25:05;95374.06;;;16.86;100.00
48563;BME280;34981;49.104;11.396;2023-09-08T00:27:32;95370.56;;;16.86;100.00
48563;BME280;34981;49.104;11.396;2023-09-08T00:29:59;95364.94;;;16.91;100.00
48563;BME280;34981;49.104;11.396;2023-09-08T00:32:30;95367.03;;;16.94;100.00
48563;BME280;34981;49.104;11.396;2023-09-08T00:34:57;95371.16;;;16.91;100.00
48563;BME280;34981;49.104;11.396;2023-09-08T00:37:24;95363.66;;;16.88;100.00
48563;BME280;34981;49.104;11.396;2023-09-08T00:39:51;95375.03;;;16.73;100.00
48563;BME280;34981;49.104;11.396;2023-09-08T00:42:18;95376.63;;;16.74;100.00
48563;BME280;34981;49.104;11.396;2023-09-08T00:44:46;95379.66;;;16.81;100.00
48563;BME280;34981;49.104;11.396;2023-09-08T00:47:13;95374.38;;;16.85;100.00
48563;BME280;34981;49.104;11.396;2023-09-08T00:49:40;95377.72;;;16.82;100.00
48563;BME280;34981;49.104;11.396;2023-09-08T00:52:08;95384.13;;;16.77;100.00
48563;BME280;34981;49.104;11.396;2023-09-08T00:54:35;95376.31;;;16.76;100.00
48563;BME280;34981;49.104;11.396;2023-09-08T00:57:02;95376.19;;;16.63;100.00
48563;BME280;34981;49.104;11.396;2023-09-08T00:59:32;95387.50;;;16.57;100.00
48563;BME280;34981;49.104;11.396;2023-09-08T01:02:01;95381.09;;;16.53;100.00
48563;BME280;34981;49.104;11.396;2023-09-08T01:04:29;95386.69;;;16.48;100.00
48563;BME280;34981;49.104;11.396;2023-09-08T01:06:57;95395.63;;;16.40;100.00
48563;BME280;34981;49.104;11.396;2023-09-08T01:09:24;95387.00;;;16.38;100.00
48563;BME280;34981;49.104;11.396;2023-09-08T01:11:52;95392.75;;;16.45;100.00
48563;BME280;34981;49.104;11.396;2023-09-08T01:14:22;95397.06;;;16.46;100.00
48563;BME280;34981;49.104;11.396;2023-09-08T01:16:49;95386.38;;;16.32;100.00
48563;BME280;34981;49.104;11.396;2023-09-08T01:19:16;95387.03;;;16.29;100.00
48563;BME280;34981;49.104;11.396;2023-09-08T01:26:40;95392.91;;;16.22;100.00
48563;BME280;34981;49.104;11.396;2023-09-08T01:29:08;95396.91;;;16.16;100.00
48563;BME280;34981;49.104;11.396;2023-09-08T01:31:36;95400.72;;;16.15;100.00
48563;BME280;34981;49.104;11.396;2023-09-08T01:34:05;95396.91;;;16.16;100.00
48563;BME280;34981;49.104;11.396;2023-09-08T01:36:34;95404.41;;;16.11;100.00
48563;BME280;34981;49.104;11.396;2023-09-08T01:39:02;95400.06;;;16.01;100.00
48563;BME280;34981;49.104;11.396;2023-09-08T01:41:30;95401.53;;;15.99;100.00
48563;BME280;34981;49.104;11.396;2023-09-08T01:43:59;95396.91;;;15.99;100.00
48563;BME280;34981;49.104;11.396;2023-09-08T01:46:26;95401.66;;;15.93;100.00
48563;BME280;34981;49.104;11.396;2023-09-08T01:48:54;95394.31;;;15.94;100.00
48563;BME280;34981;49.104;11.396;2023-09-08T01:51:21;95394.97;;;15.91;100.00
48563;BME280;34981;49.104;11.396;2023-09-08T01:53:48;95397.81;;;15.86;100.00
48563;BME280;34981;49.104;11.396;2023-09-08T01:56:15;95395.75;;;15.83;100.00
48563;BME280;34981;49.104;11.396;2023-09-08T01:58:42;95389.69;;;15.86;100.00
48563;BME280;34981;49.104;11.396;2023-09-08T02:01:09;95388.25;;;15.80;100.00
48563;BME280;34981;49.104;11.396;2023-09-08T02:03:38;95389.03;;;15.72;100.00
48563;BME280;34981;49.104;11.396;2023-09-08T02:06:05;95391.72;;;15.54;100.00
48563;BME280;34981;49.104;11.396;2023-09-08T02:08:32;95388.03;;;15.59;100.00
48563;BME280;34981;49.104;11.396;2023-09-08T02:11:00;95398.72;;;15.55;100.00
48563;BME280;34981;49.104;11.396;2023-09-08T02:13:28;95395.31;;;15.50;100.00
48563;BME280;34981;49.104;11.396;2023-09-08T02:15:55;95398.97;;;15.45;100.00
48563;BME280;34981;49.104;11.396;2023-09-08T02:18:22;95399.13;;;15.49;100.00
48563;BME280;34981;49.104;11.396;2023-09-08T02:20:51;95399.56;;;15.34;100.00
48563;BME280;34981;49.104;11.396;2023-09-08T02:23:19;95401.19;;;15.43;100.00
48563;BME280;34981;49.104;11.396;2023-09-08T02:25:46;95396.22;;;15.37;100.00
48563;BME280;34981;49.104;11.396;2023-09-08T02:28:13;95394.91;;;15.26;100.00
48563;BME280;34981;49.104;11.396;2023-09-08T02:30:42;95402.16;;;15.47;100.00
48563;BME280;34981;49.104;11.396;2023-09-08T02:33:09;95395.53;;;15.53;100.00
48563;BME280;34981;49.104;11.396;2023-09-08T02:35:37;95390.25;;;15.57;100.00
48563;BME280;34981;49.104;11.396;2023-09-08T02:38:06;95380.88;;;15.54;100.00
48563;BME280;34981;49.104;11.396;2023-09-08T02:40:33;95390.38;;;15.52;100.00
48563;BME280;34981;49.104;11.396;2023-09-08T02:43:04;95392.28;;;15.51;100.00
48563;BME280;34981;49.104;11.396;2023-09-08T02:45:31;95381.81;;;15.58;100.00
48563;BME280;34981;49.104;11.396;2023-09-08T02:48:02;95385.97;;;15.65;100.00
48563;BME280;34981;49.104;11.396;2023-09-08T02:50:30;95378.97;;;15.64;100.00
48563;BME280;34981;49.104;11.396;2023-09-08T02:52:57;95383.59;;;15.63;100.00
48563;BME280;34981;49.104;11.396;2023-09-08T02:55:26;95388.22;;;15.63;100.00
48563;BME280;34981;49.104;11.396;2023-09-08T02:57:53;95392.03;;;15.62;100.00
48563;BME280;34981;49.104;11.396;2023-09-08T03:00:20;95382.81;;;15.63;100.00
48563;BME280;34981;49.104;11.396;2023-09-08T03:02:48;95387.09;;;15.64;100.00
48563;BME280;34981;49.104;11.396;2023-09-08T03:05:15;95393.66;;;15.63;100.00
48563;BME280;34981;49.104;11.396;2023-09-08T03:07:43;95382.81;;;15.63;100.00
48563;BME280;34981;49.104;11.396;2023-09-08T03:10:10;95390.44;;;15.61;100.00
48563;BME280;34981;49.104;11.396;2023-09-08T03:12:37;95398.09;;;15.58;100.00
48563;BME280;34981;49.104;11.396;2023-09-08T03:15:05;95392.34;;;15.60;100.00
48563;BME280;34981;49.104;11.396;2023-09-08T03:17:32;95403.00;;;15.56;100.00
48563;BME280;34981;49.104;11.396;2023-09-08T03:19:59;95407.66;;;15.56;100.00
48563;BME280;34981;49.104;11.396;2023-09-08T03:22:26;95405.03;;;15.51;100.00
48563;BME280;34981;49.104;11.396;2023-09-08T03:24:54;95408.28;;;15.53;100.00
48563;BME280;34981;49.104;11.396;2023-09-08T03:27:21;95406.78;;;15.47;100.00
48563;BME280;34981;49.104;11.396;2023-09-08T03:29:48;95408.38;;;15.48;100.00
48563;BME280;34981;49.104;11.396;2023-09-08T03:32:15;95405.34;;;15.49;100.00
48563;BME280;34981;49.104;11.396;2023-09-08T03:34:43;95412.38;;;15.50;100.00
48563;BME280;34981;49.104;11.396;2023-09-08T03:37:10;95406.16;;;15.50;100.00
48563;BME280;34981;49.104;11.396;2023-09-08T03:39:37;95405.84;;;15.51;100.00
48563;BME280;34981;49.104;11.396;2023-09-08T03:42:04;95406.59;;;15.43;100.00
48563;BME280;34981;49.104;11.396;2023-09-08T03:44:32;95407.66;;;15.25;100.00
48563;BME280;34981;49.104;11.396;2023-09-08T03:46:59;95405.09;;;15.29;100.00
48563;BME280;34981;49.104;11.396;2023-09-08T03:49:30;95410.41;;;15.34;100.00
48563;BME280;34981;49.104;11.396;2023-09-08T03:51:57;95408.31;;;15.31;100.00
48563;BME280;34981;49.104;11.396;2023-09-08T03:54:25;95406.56;;;15.26;100.00
48563;BME280;34981;49.104;11.396;2023-09-08T03:56:52;95401.59;;;15.28;100.00
48563;BME280;34981;49.104;11.396;2023-09-08T03:59:19;95398.91;;;15.28;100.00
48563;BME280;34981;49.104;11.396;2023-09-08T04:01:46;95406.91;;;15.33;100.00
48563;BME280;34981;49.104;11.396;2023-09-08T04:04:13;95403.06;;;15.34;100.00
48563;BME280;34981;49.104;11.396;2023-09-08T04:06:41;95406.56;;;15.35;100.00
48563;BME280;34981;49.104;11.396;2023-09-08T04:09:08;95407.69;;;15.34;100.00
48563;BME280;34981;49.104;11.396;2023-09-08T04:11:35;95411.81;;;15.31;100.00
48563;BME280;34981;49.104;11.396;2023-09-08T04:14:02;95412.13;;;15.30;100.00
48563;BME280;34981;49.104;11.396;2023-09-08T04:16:29;95413.72;;;15.31;100.00
48563;BME280;34981;49.104;11.396;2023-09-08T04:18:57;95413.72;;;15.31;100.00
48563;BME280;34981;49.104;11.396;2023-09-08T04:21:25;95399.53;;;15.25;100.00
48563;BME280;34981;49.104;11.396;2023-09-08T04:23:52;95407.66;;;15.25;100.00
48563;BME280;34981;49.104;11.396;2023-09-08T04:26:19;95407.97;;;15.24;100.00
48563;BME280;34981;49.104;11.396;2023-09-08T04:28:46;95402.06;;;15.22;100.00
48563;BME280;34981;49.104;11.396;2023-09-08T04:31:13;95401.06;;;15.09;100.00
48563;BME280;34981;49.104;11.396;2023-09-08T04:33:40;95406.50;;;15.17;100.00
48563;BME280;34981;49.104;11.396;2023-09-08T04:36:08;95406.63;;;15.12;100.00
48563;BME280;34981;49.104;11.396;2023-09-08T04:38:36;95412.72;;;15.18;100.00
48563;BME280;34981;49.104;11.396;2023-09-08T04:41:04;95424.16;;;15.15;100.00
48563;BME280;34981;49.104;11.396;2023-09-08T04:43:32;95421.75;;;15.13;100.00
48563;BME280;34981;49.104;11.396;2023-09-08T04:45:59;95426.88;;;15.15;100.00
48563;BME280;34981;49.104;11.396;2023-09-08T04:48:26;95439.31;;;15.16;100.00
48563;BME280;34981;49.104;11.396;2023-09-08T04:50:57;95444.13;;;15.19;100.00
48563;BME280;34981;49.104;11.396;2023-09-08T04:53:24;95437.09;;;15.18;100.00
48563;BME280;34981;49.104;11.396;2023-09-08T04:55:52;95442.97;;;15.20;100.00
48563;BME280;34981;49.104;11.396;2023-09-08T04:58:19;95447.72;;;15.14;100.00
48563;BME280;34981;49.104;11.396;2023-09-08T05:00:48;95441.50;;;15.14;100.00
48563;BME280;34981;49.104;11.396;2023-09-08T05:03:15;95438.50;;;15.15;100.00
48563;BME280;34981;49.104;11.396;2023-09-08T05:05:42;95441.66;;;15.09;100.00
48563;BME280;34981;49.104;11.396;2023-09-08T05:08:09;95442.47;;;15.09;100.00
48563;BME280;34981;49.104;11.396;2023-09-08T05:10:37;95445.31;;;15.13;100.00
48563;BME280;34981;49.104;11.396;2023-09-08T05:13:05;95441.56;;;15.23;100.00
48563;BME280;34981;49.104;11.396;2023-09-08T05:15:46;95438.41;;;15.29;100.00
48563;BME280;34981;49.104;11.396;2023-09-08T05:18:15;95427.44;;;15.34;100.00
48563;BME280;34981;49.104;11.396;2023-09-08T05:20:43;95440.81;;;15.31;100.00
48563;BME280;34981;49.104;11.396;2023-09-08T05:23:10;95441.47;;;15.36;100.00
48563;BME280;34981;49.104;11.396;2023-09-08T05:25:37;95450.59;;;15.40;100.00
48563;BME280;34981;49.104;11.396;2023-09-08T05:28:05;95445.88;;;15.54;100.00
48563;BME280;34981;49.104;11.396;2023-09-08T05:30:32;95446.31;;;15.48;100.00
48563;BME280;34981;49.104;11.396;2023-09-08T05:32:59;95447.19;;;15.66;100.00
48563;BME280;34981;49.104;11.396;2023-09-08T05:35:27;95444.00;;;15.64;100.00
48563;BME280;34981;49.104;11.396;2023-09-08T05:37:54;95446.47;;;15.82;100.00
48563;BME280;34981;49.104;11.396;2023-09-08T05:40:21;95443.47;;;16.01;100.00
48563;BME280;34981;49.104;11.396;2023-09-08T05:42:51;95439.34;;;16.12;100.00
48563;BME280;34981;49.104;11.396;2023-09-08T05:45:18;95428.97;;;16.06;100.00
48563;BME280;34981;49.104;11.396;2023-09-08T05:47:45;95426.91;;;16.20;100.00
48563;BME280;34981;49.104;11.396;2023-09-08T05:50:12;95430.38;;;16.03;100.00
48563;BME280;34981;49.104;11.396;2023-09-08T05:52:40;95445.59;;;16.21;100.00
48563;BME280;34981;49.104;11.396;2023-09-08T05:55:07;95440.78;;;16.44;100.00
48563;BME280;34981;49.104;11.396;2023-09-08T05:57:35;95429.34;;;16.64;100.00
48563;BME280;34981;49.104;11.396;2023-09-08T06:00:03;95428.78;;;17.05;100.00
48563;BME280;34981;49.104;11.396;2023-09-08T06:02:39;95416.81;;;17.06;100.00
48563;BME280;34981;49.104;11.396;2023-09-08T06:05:09;95418.91;;;17.47;100.00
48563;BME280;34981;49.104;11.396;2023-09-08T06:07:36;95419.63;;;17.74;100.00
48563;BME280;34981;49.104;11.396;2023-09-08T06:10:06;95415.31;;;17.73;100.00
48563;BME280;34981;49.104;11.396;2023-09-08T06:12:33;95403.84;;;17.97;100.00
48563;BME280;34981;49.104;11.396;2023-09-08T06:15:04;95406.75;;;18.12;100.00
48563;BME280;34981;49.104;11.396;2023-09-08T06:17:33;95397.63;;;18.58;100.00
48563;BME280;34981;49.104;11.396;2023-09-08T06:20:00;95389.63;;;18.74;100.00
48563;BME280;34981;49.104;11.396;2023-09-08T06:22:27;95388.38;;;18.30;100.00
48563;BME280;34981;49.104;11.396;2023-09-08T06:24:54;95384.47;;;18.40;100.00
48563;BME280;34981;49.104;11.396;2023-09-08T06:27:22;95385.28;;;18.40;100.00
48563;BME280;34981;49.104;11.396;2023-09-08T06:29:49;95384.53;;;18.73;100.00
48563;BME280;34981;49.104;11.396;2023-09-08T06:32:17;95383.97;;;19.12;100.00
48563;BME280;34981;49.104;11.396;2023-09-08T06:34:46;95383.09;;;18.87;100.00
48563;BME280;34981;49.104;11.396;2023-09-08T06:37:14;95381.94;;;19.21;100.00
48563;BME280;34981;49.104;11.396;2023-09-08T06:39:41;95376.59;;;19.25;100.00
48563;BME280;34981;49.104;11.396;2023-09-08T06:42:09;95384.03;;;19.61;100.00
48563;BME280;34981;49.104;11.396;2023-09-08T06:44:40;95381.75;;;19.99;100.00
48563;BME280;34981;49.104;11.396;2023-09-08T06:47:07;95380.03;;;19.95;100.00
48563;BME280;34981;49.104;11.396;2023-09-08T06:49:35;95391.88;;;20.63;100.00
48563;BME280;34981;49.104;11.396;2023-09-08T06:52:02;95386.44;;;20.51;100.00
48563;BME280;34981;49.104;11.396;2023-09-08T06:54:30;95381.84;;;20.67;100.00
48563;BME280;34981;49.104;11.396;2023-09-08T06:56:57;95391.56;;;21.08;100.00
48563;BME280;34981;49.104;11.396;2023-09-08T06:59:24;95390.53;;;21.28;100.00
48563;BME280;34981;49.104;11.396;2023-09-08T07:01:51;95396.81;;;21.29;100.00
48563;BME280;34981;49.104;11.396;2023-09-08T07:04:19;95391.16;;;20.94;100.00
48563;BME280;34981;49.104;11.396;2023-09-08T07:06:47;95389.97;;;20.79;100.00
48563;BME280;34981;49.104;11.396;2023-09-08T07:09:14;95387.19;;;20.91;100.00
48563;BME280;34981;49.104;11.396;2023-09-08T07:11:42;95397.03;;;21.08;100.00
48563;BME280;34981;49.104;11.396;2023-09-08T07:14:09;95391.06;;;20.90;100.00
48563;BME280;34981;49.104;11.396;2023-09-08T07:16:37;95394.41;;;21.27;100.00
48563;BME280;34981;49.104;11.396;2023-09-08T07:19:05;95389.44;;;21.61;100.00
48563;BME280;34981;49.104;11.396;2023-09-08T07:21:32;95406.69;;;21.49;100.00
48563;BME280;34981;49.104;11.396;2023-09-08T07:23:59;95405.97;;;21.21;100.00
48563;BME280;34981;49.104;11.396;2023-09-08T07:26:28;95406.75;;;20.93;100.00
48563;BME280;34981;49.104;11.396;2023-09-08T07:28:55;95409.34;;;21.30;100.00
48563;BME280;34981;49.104;11.396;2023-09-08T07:31:22;95409.97;;;21.39;100.00
48563;BME280;34981;49.104;11.396;2023-09-08T07:33:50;95409.44;;;21.81;100.00
48563;BME280;34981;49.104;11.396;2023-09-08T07:36:18;95417.44;;;20.98;100.00
48563;BME280;34981;49.104;11.396;2023-09-08T07:38:46;95413.13;;;21.41;100.00
48563;BME280;34981;49.104;11.396;2023-09-08T07:41:13;95415.59;;;21.77;100.00
48563;BME280;34981;49.104;11.396;2023-09-08T07:43:40;95419.03;;;21.27;100.00
48563;BME280;34981;49.104;11.396;2023-09-08T07:46:10;95418.91;;;21.99;100.00
48563;BME280;34981;49.104;11.396;2023-09-08T07:48:37;95431.53;;;22.38;100.00
48563;BME280;34981;49.104;11.396;2023-09-08T07:51:05;95434.59;;;22.18;100.00
48563;BME280;34981;49.104;11.396;2023-09-08T07:53:32;95435.22;;;22.46;100.00
48563;BME280;34981;49.104;11.396;2023-09-08T07:55:59;95457.38;;;21.74;100.00
48563;BME280;34981;49.104;11.396;2023-09-08T07:58:28;95464.34;;;22.19;100.00
48563;BME280;34981;49.104;11.396;2023-09-08T08:00:55;95470.47;;;21.97;100.00
48563;BME280;34981;49.104;11.396;2023-09-08T08:03:22;95460.66;;;22.11;100.00
48563;BME280;34981;49.104;11.396;2023-09-08T08:05:51;95469.56;;;22.08;100.00
48563;BME280;34981;49.104;11.396;2023-09-08T08:08:18;95465.50;;;22.53;100.00
48563;BME280;34981;49.104;11.396;2023-09-08T08:10:45;95484.16;;;22.12;100.00
48563;BME280;34981;49.104;11.396;2023-09-08T08:13:12;95469.72;;;23.01;100.00
48563;BME280;34981;49.104;11.396;2023-09-08T08:15:40;95469.06;;;22.73;100.00
48563;BME280;34981;49.104;11.396;2023-09-08T08:18:07;95480.06;;;23.30;100.00
48563;BME280;34981;49.104;11.396;2023-09-08T08:20:37;95509.47;;;23.30;100.00
48563;BME280;34981;49.104;11.396;2023-09-08T08:23:05;95540.06;;;23.71;100.00
48563;BME280;34981;49.104;11.396;2023-09-08T08:25:32;95554.13;;;23.30;100.00
48563;BME280;34981;49.104;11.396;2023-09-08T08:27:59;95577.25;;;23.29;100.00
48563;BME280;34981;49.104;11.396;2023-09-08T08:30:28;95566.22;;;22.91;100.00
48563;BME280;34981;49.104;11.396;2023-09-08T08:32:56;95581.09;;;23.44;100.00
48563;BME280;34981;49.104;11.396;2023-09-08T08:35:23;95598.59;;;23.40;100.00
48563;BME280;34981;49.104;11.396;2023-09-08T08:37:51;95617.00;;;23.20;100.00
48563;BME280;34981;49.104;11.396;2023-09-08T08:40:18;95633.41;;;23.36;100.00
48563;BME280;34981;49.104;11.396;2023-09-08T08:42:45;95637.44;;;23.57;100.00
48563;BME280;34981;49.104;11.396;2023-09-08T08:45:12;95661.63;;;23.71;100.00
48563;BME280;34981;49.104;11.396;2023-09-08T08:47:41;95682.78;;;23.36;100.00
48563;BME280;34981;49.104;11.396;2023-09-08T08:50:08;95695.75;;;22.88;100.00
48563;BME280;34981;49.104;11.396;2023-09-08T08:52:38;95698.84;;;23.53;100.00
48563;BME280;34981;49.104;11.396;2023-09-08T08:55:06;95731.75;;;24.23;100.00
48563;BME280;34981;49.104;11.396;2023-09-08T08:57:33;95736.44;;;24.22;100.00
48563;BME280;34981;49.104;11.396;2023-09-08T09:00:01;95755.72;;;24.26;100.00
48563;BME280;34981;49.104;11.396;2023-09-08T09:02:28;95762.84;;;24.11;100.00
48563;BME280;34981;49.104;11.396;2023-09-08T09:04:55;95771.69;;;24.01;100.00
48563;BME280;34981;49.104;11.396;2023-09-08T09:07:23;95789.44;;;24.23;100.00
48563;BME280;34981;49.104;11.396;2023-09-08T09:09:51;95818.25;;;24.71;100.00
48563;BME280;34981;49.104;11.396;2023-09-08T09:12:18;95853.00;;;24.60;100.00
48563;BME280;34981;49.104;11.396;2023-09-08T09:14:46;95845.84;;;24.94;100.00
48563;BME280;34981;49.104;11.396;2023-09-08T09:17:16;95840.56;;;24.66;100.00
48563;BME280;34981;49.104;11.396;2023-09-08T09:19:43;95838.47;;;24.59;100.00
48563;BME280;34981;49.104;11.396;2023-09-08T09:22:10;95839.19;;;24.37;100.00
48563;BME280;34981;49.104;11.396;2023-09-08T09:24:41;95867.38;;;24.18;100.00
48563;BME280;34981;49.104;11.396;2023-09-08T09:27:11;95838.53;;;24.24;100.00
48563;BME280;34981;49.104;11.396;2023-09-08T09:29:45;95842.06;;;24.44;100.00
48563;BME280;34981;49.104;11.396;2023-09-08T09:32:13;95837.16;;;24.72;100.00
48563;BME280;34981;49.104;11.396;2023-09-08T09:34:51;95845.31;;;24.88;100.00
48563;BME280;34981;49.104;11.396;2023-09-08T09:37:20;95844.16;;;24.70;100.00
48563;BME280;34981;49.104;11.396;2023-09-08T09:39:52;95822.19;;;25.57;100.00
48563;BME280;34981;49.104;11.396;2023-09-08T09:42:20;95862.13;;;25.02;100.00
48563;BME280;34981;49.104;11.396;2023-09-08T09:44:48;95857.72;;;24.98;100.00
48563;BME280;34981;49.104;11.396;2023-09-08T09:47:16;95898.97;;;24.98;100.00
48563;BME280;34981;49.104;11.396;2023-09-08T09:49:44;95911.63;;;25.44;100.00
48563;BME280;34981;49.104;11.396;2023-09-08T09:52:12;95930.53;;;25.04;100.00
48563;BME280;34981;49.104;11.396;2023-09-08T09:54:42;95976.06;;;24.66;100.00
48563;BME280;34981;49.104;11.396;2023-09-08T09:57:13;95973.53;;;24.77;100.00
48563;BME280;34981;49.104;11.396;2023-09-08T09:59:40;95988.13;;;24.97;100.00
48563;BME280;34981;49.104;11.396;2023-09-08T10:02:08;96040.66;;;24.92;100.00
48563;BME280;34981;49.104;11.396;2023-09-08T10:04:42;96049.69;;;25.27;100.00
48563;BME280;34981;49.104;11.396;2023-09-08T10:07:10;96053.94;;;25.05;100.00
48563;BME280;34981;49.104;11.396;2023-09-08T10:09:37;96044.16;;;25.46;100.00
48563;BME280;34981;49.104;11.396;2023-09-08T10:12:05;96115.13;;;25.18;100.00
48563;BME280;34981;49.104;11.396;2023-09-08T10:14:33;96150.00;;;25.14;100.00
48563;BME280;34981;49.104;11.396;2023-09-08T10:17:02;96148.25;;;25.06;100.00
48563;BME280;34981;49.104;11.396;2023-09-08T10:19:31;96134.78;;;25.01;100.00
48563;BME280;34981;49.104;11.396;2023-09-08T10:22:01;96131.56;;;24.99;100.00
48563;BME280;34981;49.104;11.396;2023-09-08T10:24:33;96113.44;;;25.48;100.00
48563;BME280;34981;49.104;11.396;2023-09-08T10:27:11;96114.59;;;25.47;100.00
48563;BME280;34981;49.104;11.396;2023-09-08T10:29:38;96102.47;;;25.52;100.00
48563;BME280;34981;49.104;11.396;2023-09-08T10:32:07;96108.88;;;25.75;100.00
48563;BME280;34981;49.104;11.396;2023-09-08T10:34:35;96096.31;;;25.39;100.00
48563;BME280;34981;49.104;11.396;2023-09-08T10:37:03;96094.63;;;25.70;100.00
48563;BME280;34981;49.104;11.396;2023-09-08T10:39:44;96092.72;;;25.54;100.00
48563;BME280;34981;49.104;11.396;2023-09-08T10:44:50;96100.69;;;25.59;100.00
48563;BME280;34981;49.104;11.396;2023-09-08T10:47:22;96090.78;;;25.74;100.00
48563;BME280;34981;49.104;11.396;2023-09-08T10:49:50;96086.84;;;25.75;100.00
48563;BME280;34981;49.104;11.396;2023-09-08T10:52:23;96097.97;;;26.02;100.00
48563;BME280;34981;49.104;11.396;2023-09-08T10:54:51;96118.78;;;25.41;100.00
48563;BME280;34981;49.104;11.396;2023-09-08T10:57:20;96125.81;;;25.39;100.00
48563;BME280;34981;49.104;11.396;2023-09-08T10:59:51;96128.06;;;25.52;100.00
48563;BME280;34981;49.104;11.396;2023-09-08T11:02:36;96131.50;;;25.30;100.00
48563;BME280;34981;49.104;11.396;2023-09-08T11:05:06;96125.34;;;25.17;100.00
48563;BME280;34981;49.104;11.396;2023-09-08T11:07:33;96129.84;;;25.61;100.00
48563;BME280;34981;49.104;11.396;2023-09-08T11:10:00;96129.53;;;25.66;100.00
48563;BME280;34981;49.104;11.396;2023-09-08T11:12:28;96125.38;;;25.56;100.00
48563;BME280;34981;49.104;11.396;2023-09-08T11:14:55;96129.84;;;25.61;100.00
48563;BME280;34981;49.104;11.396;2023-09-08T11:17:29;96142.09;;;25.47;100.00
48563;BME280;34981;49.104;11.396;2023-09-08T11:19:56;96142.44;;;25.27;100.00
48563;BME280;34981;49.104;11.396;2023-09-08T11:22:24;96143.56;;;25.41;100.00
48563;BME280;34981;49.104;11.396;2023-09-08T11:24:52;96149.53;;;25.63;100.00
48563;BME280;34981;49.104;11.396;2023-09-08T11:27:20;96147.03;;;25.57;100.00
48563;BME280;34981;49.104;11.396;2023-09-08T11:29:47;96157.81;;;25.47;100.00
48563;BME280;34981;49.104;11.396;2023-09-08T11:32:14;96153.00;;;25.59;100.00
48563;BME280;34981;49.104;11.396;2023-09-08T11:34:42;96158.22;;;25.65;100.00
48563;BME280;34981;49.104;11.396;2023-09-08T11:37:12;96169.97;;;25.81;100.00
48563;BME280;34981;49.104;11.396;2023-09-08T11:39:40;96188.16;;;25.66;100.00
48563;BME280;34981;49.104;11.396;2023-09-08T11:42:08;96191.66;;;25.47;100.00
48563;BME280;34981;49.104;11.396;2023-09-08T11:44:36;96192.38;;;25.44;100.00
48563;BME280;34981;49.104;11.396;2023-09-08T11:47:06;96204.78;;;25.89;100.00
48563;BME280;34981;49.104;11.396;2023-09-08T11:49:34;96198.09;;;25.90;100.00
48563;BME280;34981;49.104;11.396;2023-09-08T11:52:02;96196.50;;;25.89;100.00
48563;BME280;34981;49.104;11.396;2023-09-08T11:54:29;96212.38;;;25.76;100.00
48563;BME280;34981;49.104;11.396;2023-09-08T11:56:59;96204.81;;;25.38;100.00
48563;BME280;34981;49.104;11.396;2023-09-08T11:59:27;96206.09;;;25.25;100.00
48563;BME280;34981;49.104;11.396;2023-09-08T12:01:55;96208.34;;;25.54;100.00
48563;BME280;34981;49.104;11.396;2023-09-08T12:04:23;96206.56;;;25.62;100.00
48563;BME280;34981;49.104;11.396;2023-09-08T12:06:51;96212.31;;;25.92;100.00
48563;BME280;34981;49.104;11.396;2023-09-08T12:09:20;96202.53;;;25.75;100.00
48563;BME280;34981;49.104;11.396;2023-09-08T12:11:47;96200.06;;;25.89;100.00
48563;BME280;34981;49.104;11.396;2023-09-08T12:14:15;96198.66;;;25.61;100.00
48563;BME280;34981;49.104;11.396;2023-09-08T12:16:42;96201.94;;;25.50;100.00
48563;BME280;34981;49.104;11.396;2023-09-08T12:19:28;96213.53;;;25.75;100.00
48563;BME280;34981;49.104;11.396;2023-09-08T12:21:58;96207.75;;;26.00;100.00
48563;BME280;34981;49.104;11.396;2023-09-08T12:27:12;96198.25;;;25.78;100.00
48563;BME280;34981;49.104;11.396;2023-09-08T12:29:39;96206.06;;;25.76;100.00
48563;BME280;34981;49.104;11.396;2023-09-08T12:32:06;96208.03;;;25.75;100.00
48563;BME280;34981;49.104;11.396;2023-09-08T12:34:34;96198.22;;;25.43;100.00
48563;BME280;34981;49.104;11.396;2023-09-08T12:37:01;96195.41;;;25.39;100.00
48563;BME280;34981;49.104;11.396;2023-09-08T12:39:28;96201.06;;;25.46;100.00
48563;BME280;34981;49.104;11.396;2023-09-08T12:41:56;96197.22;;;25.67;100.00
48563;BME280;34981;49.104;11.396;2023-09-08T12:44:23;96190.69;;;25.40;100.00
48563;BME280;34981;49.104;11.396;2023-09-08T12:46:50;96192.59;;;25.71;100.00
48563;BME280;34981;49.104;11.396;2023-09-08T12:49:18;96195.63;;;25.66;100.00
48563;BME280;34981;49.104;11.396;2023-09-08T12:51:45;96192.16;;;25.69;100.00
48563;BME280;34981;49.104;11.396;2023-09-08T12:54:12;96171.13;;;25.80;100.00